Adin, CA

3:51 PM PDT on April 25, 2015 (GMT -0700)
KCAMCART2 | | Change Station
CLOSE
Current Station
Personal Weather Station
Location: Lookout, CA
Elevation: 4265 ft
Nearby Weather Stations

Elev 4265 ft 41.23 °N, 121.22 °W | Updated 18 seconds ago

Mostly Cloudy
Mostly Cloudy
53.6 °F
Feels Like 53.6 °F
N
0.0
Wind Variable Wind from South
Gusts 4.0 mph

Today
High -- | Low -- °F
--% Chance of Precip.
Yesterday
High -- | Low -- °F
Precip. -- in
6:09 AM 7:54 PM
Waxing Crescent, 49% visible
Pressure 29.89 in
Visibility 10.0 miles
Clouds Scattered Clouds 6000 ft
Mostly Cloudy 7500 ft
Mostly Cloudy 9000 ft
Dew Point 34 °F
Humidity 47%
Rainfall 0.07 in
Snow Depth Not available.
UV 5 out of 12
Pollen 4.40 out of 12
Air Quality Not available.
Flu Activity Sporadic
METAR KAAT 252155Z AUTO VRB04KT 10SM SCT060 BKN075 BKN090 09/02 A2989 RMK AO2 RAE35 SLP120 P0001 T00890017

More Conditions Fewer Conditions

Pressure 29.89 in
Visibility 10.0 miles
Clouds Scattered Clouds 6000 ft
Mostly Cloudy 7500 ft
Mostly Cloudy 9000 ft
Dew Point 34 °F
Humidity 47%
Rainfall 0.07 in
Snow Depth Not available.
UV 5 out of 12
Pollen 4.40 out of 12
Air Quality Not available.
Flu Activity Sporadic
METAR KAAT 252155Z AUTO VRB04KT 10SM SCT060 BKN075 BKN090 09/02 A2989 RMK AO2 RAE35 SLP120 P0001 T00890017

More Conditions Fewer Conditions

10-Day Weather Forecast

Almanac

Astronomy

Apr. 25, 2015 Rise Set
Actual Time
Civil Twilight
Nautical Twilight
Astronomical Twilight
Moon
Length of Visible Light
Length of Day
Tomorrow will be .
, % of the Moon is Illuminated

Today's Extremes

State Highs State Lows

Community

WunderPhotos

Upload Photos

1,816,841 photos uploaded!

WunderBlogs® & News

Nearby

Air Quality

  Air Quality AQ Index Pollutant
Not available.

Snow Depth

Station Depth Elevation

Earthquake Activity

City Distance Mag. Time & Date
Minimum magnitude displayed is 2.5.

Coastal Water Temperatures

Place Temperature

Stations

Nearby Weather Stations

Station Location Temp. Windchill Dew Point Humidity Wind Precip. Elev Updated Type